createdAt,value
2017-10-11T00:01:30.825Z,63.60
2017-10-11T00:04:00.226Z,63.80
2017-10-11T00:06:29.314Z,63.90
2017-10-11T00:08:57.384Z,63.80
2017-10-11T00:11:25.838Z,63.80
2017-10-11T00:13:54.358Z,65.00
2017-10-11T00:16:23.609Z,64.20
2017-10-11T00:18:51.932Z,64.20
2017-10-11T00:21:21.149Z,64.10
2017-10-11T00:23:50.362Z,63.90
2017-10-11T00:26:18.801Z,63.90
2017-10-11T00:28:47.891Z,63.70
2017-10-11T00:31:15.977Z,63.70
2017-10-11T00:33:45.342Z,63.70
2017-10-11T00:36:13.546Z,63.70
2017-10-11T00:38:42.742Z,63.20
2017-10-11T00:41:11.727Z,62.80
2017-10-11T00:43:41.547Z,62.70
2017-10-11T00:46:10.844Z,62.70
2017-10-11T00:48:40.124Z,62.30
2017-10-11T00:51:08.485Z,62.70
2017-10-11T00:53:37.661Z,63.20
2017-10-11T00:56:06.164Z,63.20
2017-10-11T00:58:34.596Z,63.50
2017-10-11T01:01:02.859Z,63.50
2017-10-11T01:03:32.066Z,63.90
2017-10-11T01:06:00.944Z,64.10
2017-10-11T01:08:30.401Z,63.50
2017-10-11T01:10:58.921Z,63.50
2017-10-11T01:13:27.082Z,63.50
2017-10-11T01:15:56.181Z,63.70
2017-10-11T01:18:25.469Z,63.50
2017-10-11T01:20:53.854Z,63.50
2017-10-11T01:23:23.114Z,63.90
2017-10-11T01:25:51.534Z,63.50
2017-10-11T01:28:19.722Z,63.60
2017-10-11T01:30:48.899Z,63.40
2017-10-11T01:33:17.399Z,63.30
2017-10-11T01:35:45.758Z,64.10
2017-10-11T01:38:14.350Z,63.00
2017-10-11T01:40:42.646Z,62.30
2017-10-11T01:43:11.626Z,62.10
2017-10-11T01:45:40.989Z,62.20
2017-10-11T01:48:09.390Z,62.10
2017-10-11T01:50:37.786Z,61.00
2017-10-11T01:53:07.204Z,60.80
2017-10-11T01:55:35.672Z,60.80
2017-10-11T01:58:04.633Z,60.70
2017-10-11T02:00:33.001Z,60.70
2017-10-11T02:03:01.188Z,61.10
2017-10-11T02:05:29.616Z,61.00
2017-10-11T02:07:57.851Z,60.90
2017-10-11T02:10:26.158Z,60.90
2017-10-11T02:12:54.428Z,60.80
2017-10-11T02:15:23.512Z,61.00
2017-10-11T02:17:53.019Z,61.00
2017-10-11T02:20:21.983Z,60.70
2017-10-11T02:22:50.728Z,60.70
2017-10-11T02:25:19.556Z,60.60
2017-10-11T02:27:47.969Z,60.40
2017-10-11T02:30:17.003Z,59.50
2017-10-11T02:32:45.507Z,60.20
2017-10-11T02:35:13.905Z,59.60
2017-10-11T02:37:43.303Z,59.40
2017-10-11T02:40:12.413Z,59.30
2017-10-11T02:42:40.621Z,59.30
2017-10-11T02:45:08.794Z,59.20
2017-10-11T02:47:37.297Z,59.20
2017-10-11T02:50:05.478Z,59.40
2017-10-11T02:52:33.657Z,59.30
2017-10-11T02:55:02.113Z,59.40
2017-10-11T02:57:30.529Z,59.50
2017-10-11T02:59:59.314Z,59.50
2017-10-11T03:02:28.370Z,59.90
2017-10-11T03:04:56.577Z,59.80
2017-10-11T03:07:24.969Z,59.50
2017-10-11T03:09:53.292Z,59.60
2017-10-11T03:12:21.892Z,59.60
2017-10-11T03:14:50.155Z,59.40
2017-10-11T03:17:18.777Z,59.50
2017-10-11T03:19:47.052Z,59.60
2017-10-11T03:22:15.192Z,59.50
2017-10-11T03:24:43.611Z,59.70
2017-10-11T03:27:11.554Z,59.80
2017-10-11T03:29:39.852Z,59.70
2017-10-11T03:32:08.135Z,59.70
2017-10-11T03:34:37.729Z,60.10
2017-10-11T03:37:06.309Z,60.10
2017-10-11T03:39:35.729Z,60.10
2017-10-11T03:42:05.129Z,59.80
2017-10-11T03:44:34.429Z,59.80
2017-10-11T03:47:03.749Z,60.20
2017-10-11T03:49:31.829Z,60.20
2017-10-11T03:52:00.170Z,60.10
2017-10-11T03:54:28.789Z,60.30
2017-10-11T03:56:57.300Z,60.50
2017-10-11T03:59:25.958Z,60.70
2017-10-11T04:01:54.488Z,60.70
2017-10-11T04:04:22.937Z,61.30
2017-10-11T04:06:51.137Z,60.60
2017-10-11T04:09:19.829Z,60.80
2017-10-11T04:11:48.309Z,60.70
2017-10-11T04:14:16.689Z,60.70
2017-10-11T04:16:45.788Z,60.40
2017-10-11T04:19:14.169Z,60.40
2017-10-11T04:21:43.430Z,60.30
2017-10-11T04:24:11.849Z,60.30
2017-10-11T04:26:41.211Z,60.60
2017-10-11T04:29:09.630Z,60.60
2017-10-11T04:31:38.029Z,60.50
2017-10-11T04:34:07.269Z,60.20
2017-10-11T04:36:35.573Z,60.20
2017-10-11T04:39:03.849Z,60.70
2017-10-11T04:41:32.329Z,60.70
2017-10-11T04:44:01.609Z,61.10
2017-10-11T04:46:29.689Z,61.10
2017-10-11T04:48:58.269Z,60.20
2017-10-11T04:51:26.454Z,60.10
2017-10-11T04:53:54.711Z,60.10
2017-10-11T04:56:23.112Z,59.90
2017-10-11T04:58:51.372Z,60.00
2017-10-11T05:01:19.673Z,60.10
2017-10-11T05:03:48.749Z,59.90
2017-10-11T05:06:17.170Z,59.90
2017-10-11T05:08:45.895Z,60.10
2017-10-11T05:11:14.311Z,60.20
2017-10-11T05:13:42.645Z,60.10
2017-10-11T05:16:11.169Z,60.10
2017-10-11T05:18:40.869Z,59.80
2017-10-11T05:21:09.262Z,59.80
2017-10-11T05:23:38.429Z,60.00
2017-10-11T05:26:06.951Z,60.00
2017-10-11T05:28:36.891Z,60.50
2017-10-11T05:31:05.653Z,60.50
2017-10-11T05:33:34.193Z,60.50
2017-10-11T05:36:02.493Z,60.70
2017-10-11T05:38:31.587Z,60.00
2017-10-11T05:41:00.855Z,60.10
2017-10-11T05:43:28.879Z,60.00
2017-10-11T05:45:57.415Z,60.00
2017-10-11T05:48:27.296Z,61.10
2017-10-11T05:50:55.655Z,61.10
2017-10-11T05:53:24.882Z,60.90
2017-10-11T05:55:53.507Z,60.80
2017-10-11T05:58:21.900Z,61.10
2017-10-11T06:00:50.361Z,61.50
2017-10-11T06:03:19.436Z,62.40
2017-10-11T06:05:47.587Z,61.90
2017-10-11T06:08:15.986Z,62.00
2017-10-11T06:10:44.346Z,62.30
2017-10-11T06:13:12.742Z,62.10
2017-10-11T06:15:41.026Z,62.30
2017-10-11T06:18:09.406Z,62.60
2017-10-11T06:20:37.554Z,62.30
2017-10-11T06:23:05.956Z,62.30
2017-10-11T06:25:34.492Z,62.30
2017-10-11T06:28:03.093Z,61.90
2017-10-11T06:30:31.736Z,61.50
2017-10-11T06:33:00.896Z,61.70
2017-10-11T06:35:29.396Z,61.70
2017-10-11T06:37:58.714Z,62.10
2017-10-11T06:40:27.891Z,62.30
2017-10-11T06:42:57.190Z,62.30
2017-10-11T06:45:26.376Z,62.40
2017-10-11T06:47:54.610Z,62.40
2017-10-11T06:50:22.910Z,62.40
2017-10-11T06:52:51.410Z,62.00
2017-10-11T06:55:20.810Z,61.70
2017-10-11T06:57:49.008Z,61.70
2017-10-11T07:00:18.293Z,61.10
2017-10-11T07:02:47.373Z,61.00
2017-10-11T07:05:15.713Z,61.00
2017-10-11T07:07:43.833Z,60.70
2017-10-11T07:10:12.840Z,61.10
2017-10-11T07:12:41.771Z,61.10
2017-10-11T07:15:10.337Z,61.10
2017-10-11T07:17:39.110Z,60.90
2017-10-11T07:20:07.751Z,60.70
2017-10-11T07:22:36.248Z,60.80
2017-10-11T07:25:05.235Z,61.00
2017-10-11T07:27:34.333Z,60.90
2017-10-11T07:30:03.017Z,60.90
2017-10-11T07:32:32.313Z,60.90
2017-10-11T07:35:01.147Z,60.90
2017-10-11T07:37:29.667Z,60.70
2017-10-11T07:39:58.170Z,60.60
2017-10-11T07:42:26.554Z,60.60
2017-10-11T07:44:55.806Z,60.50
2017-10-11T07:47:24.307Z,60.50
2017-10-11T07:49:52.818Z,60.30
2017-10-11T07:52:22.414Z,60.00
2017-10-11T07:54:50.794Z,60.00
2017-10-11T07:57:20.094Z,61.10
2017-10-11T07:59:49.500Z,60.30
2017-10-11T08:02:18.701Z,59.80
2017-10-11T08:04:47.484Z,59.50
2017-10-11T08:07:16.590Z,59.70
2017-10-11T08:09:45.154Z,59.70
2017-10-11T08:12:14.352Z,60.30
2017-10-11T08:14:42.672Z,59.90
2017-10-11T08:17:11.229Z,60.40
2017-10-11T08:19:40.255Z,58.60
2017-10-11T08:22:08.935Z,58.60
2017-10-11T08:24:37.063Z,58.30
2017-10-11T08:27:05.033Z,58.10
2017-10-11T08:29:33.298Z,57.40
2017-10-11T08:32:02.597Z,57.90
2017-10-11T08:34:30.678Z,57.90
2017-10-11T08:37:00.187Z,57.90
2017-10-11T08:39:29.388Z,57.50
2017-10-11T08:41:58.348Z,57.20
2017-10-11T08:44:26.781Z,57.20
2017-10-11T08:46:54.990Z,56.80
2017-10-11T08:49:23.194Z,55.30
2017-10-11T08:51:52.498Z,53.70
2017-10-11T08:54:20.867Z,53.70
2017-10-11T08:56:49.146Z,53.30
2017-10-11T08:59:17.594Z,52.80
2017-10-11T09:01:45.995Z,53.30
2017-10-11T09:04:14.384Z,52.20
2017-10-11T09:06:42.926Z,51.40
2017-10-11T09:09:11.250Z,51.50
2017-10-11T09:11:40.644Z,50.80
2017-10-11T09:14:09.219Z,50.70
2017-10-11T09:16:37.618Z,50.90
2017-10-11T09:19:06.520Z,51.00
2017-10-11T09:21:35.619Z,50.40
2017-10-11T09:24:03.596Z,50.40
2017-10-11T09:26:32.146Z,50.30
2017-10-11T09:29:01.431Z,50.70
2017-10-11T09:31:29.924Z,50.10
2017-10-11T09:33:58.802Z,49.40
2017-10-11T09:36:27.919Z,49.70
2017-10-11T09:38:56.271Z,49.70
2017-10-11T09:41:24.562Z,50.00
2017-10-11T09:43:52.784Z,49.60
2017-10-11T09:46:21.522Z,49.30
2017-10-11T09:48:49.995Z,49.80
2017-10-11T09:51:19.217Z,49.10
2017-10-11T09:53:48.297Z,48.40
2017-10-11T09:56:17.497Z,48.60
2017-10-11T09:58:46.578Z,48.60
2017-10-11T10:01:14.988Z,48.60
2017-10-11T10:03:43.030Z,48.40
2017-10-11T10:06:12.853Z,48.40
2017-10-11T10:08:42.124Z,48.50
2017-10-11T10:11:10.729Z,48.50
2017-10-11T10:13:38.956Z,48.70
2017-10-11T10:16:07.386Z,48.10
2017-10-11T10:18:36.177Z,48.30
2017-10-11T10:21:05.057Z,48.20
2017-10-11T10:23:33.552Z,48.20
2017-10-11T10:26:02.624Z,47.20
2017-10-11T10:28:30.789Z,47.20
2017-10-11T10:30:59.254Z,47.40
2017-10-11T10:33:27.654Z,46.90
2017-10-11T10:35:56.137Z,46.40
2017-10-11T10:38:24.594Z,46.50
2017-10-11T10:40:53.294Z,46.70
2017-10-11T10:43:21.288Z,46.90
2017-10-11T10:45:50.458Z,47.80
2017-10-11T10:48:18.882Z,47.80
2017-10-11T10:50:47.338Z,48.70
2017-10-11T10:53:16.667Z,49.40
2017-10-11T10:55:45.268Z,49.40
2017-10-11T10:58:13.667Z,49.30
2017-10-11T11:00:42.171Z,49.50
2017-10-11T11:03:11.450Z,48.80
2017-10-11T11:05:39.860Z,48.80
2017-10-11T11:08:08.233Z,49.10
2017-10-11T11:10:37.581Z,48.80
2017-10-11T11:13:06.113Z,48.80
2017-10-11T11:15:35.313Z,49.20
2017-10-11T11:18:04.493Z,49.10
2017-10-11T11:20:33.779Z,48.70
2017-10-11T11:23:02.392Z,48.60
2017-10-11T11:25:31.558Z,49.10
2017-10-11T11:27:59.992Z,49.00
2017-10-11T11:30:28.310Z,49.10
2017-10-11T11:32:57.233Z,49.20
2017-10-11T11:35:26.624Z,48.60
2017-10-11T11:37:54.885Z,48.60
2017-10-11T11:40:23.483Z,48.90
2017-10-11T11:42:51.780Z,49.70
2017-10-11T11:45:20.800Z,50.30
2017-10-11T11:47:49.266Z,50.30
2017-10-11T11:50:18.568Z,50.00
2017-10-11T11:52:47.217Z,50.00
2017-10-11T11:55:16.376Z,49.70
2017-10-11T11:57:44.686Z,49.60
2017-10-11T12:00:12.882Z,48.80
2017-10-11T12:02:41.938Z,48.00
2017-10-11T12:05:10.478Z,48.00
2017-10-11T12:07:39.337Z,48.40
2017-10-11T12:10:08.394Z,47.00
2017-10-11T12:12:36.901Z,46.90
2017-10-11T12:15:06.596Z,45.30
2017-10-11T12:17:34.833Z,45.30
2017-10-11T12:20:02.959Z,44.00
2017-10-11T12:22:32.964Z,42.70
2017-10-11T12:25:01.382Z,42.70
2017-10-11T12:27:30.563Z,41.70
2017-10-11T12:29:59.732Z,41.60
2017-10-11T12:32:28.088Z,41.60
2017-10-11T12:34:56.291Z,41.50
2017-10-11T12:37:24.532Z,42.00
2017-10-11T12:39:52.875Z,42.40
2017-10-11T12:42:21.222Z,43.30
2017-10-11T12:44:49.702Z,43.30
2017-10-11T12:47:17.893Z,44.60
2017-10-11T12:49:46.855Z,48.60
2017-10-11T12:52:15.323Z,48.60
2017-10-11T12:54:43.733Z,46.90
2017-10-11T12:57:12.196Z,47.00
2017-10-11T12:59:40.536Z,46.40
2017-10-11T13:02:09.272Z,47.60
2017-10-11T13:04:37.747Z,48.30
2017-10-11T13:07:05.894Z,48.00
2017-10-11T13:09:34.331Z,48.20
2017-10-11T13:12:03.391Z,50.40
2017-10-11T13:14:31.770Z,50.50
2017-10-11T13:17:00.269Z,51.10
2017-10-11T13:19:29.559Z,51.90
2017-10-11T13:21:57.485Z,52.00
2017-10-11T13:24:25.756Z,50.70
2017-10-11T13:26:54.098Z,50.20
2017-10-11T13:29:22.356Z,52.60
2017-10-11T13:31:50.928Z,51.50
2017-10-11T13:34:19.308Z,50.60
2017-10-11T13:36:47.527Z,54.10
2017-10-11T13:39:15.749Z,53.90
2017-10-11T13:41:43.928Z,50.80
2017-10-11T13:44:12.108Z,51.90
2017-10-11T13:46:41.328Z,53.00
2017-10-11T13:49:10.710Z,54.00
2017-10-11T13:51:38.989Z,53.90
2017-10-11T13:54:07.569Z,52.90
2017-10-11T13:56:36.948Z,52.50
2017-10-11T13:59:05.248Z,52.50
2017-10-11T14:01:33.509Z,53.10
2017-10-11T14:04:01.789Z,52.90
2017-10-11T14:06:30.308Z,52.80
2017-10-11T14:08:58.809Z,53.30
2017-10-11T14:11:27.249Z,51.90
2017-10-11T14:13:56.548Z,52.10
2017-10-11T14:16:25.621Z,51.80
2017-10-11T14:18:53.680Z,51.80
2017-10-11T14:21:22.176Z,53.10
2017-10-11T14:23:50.736Z,53.20
2017-10-11T14:26:19.275Z,53.80
2017-10-11T14:28:47.816Z,52.90
2017-10-11T14:31:15.899Z,51.20
2017-10-11T14:33:44.837Z,51.70
2017-10-11T14:36:13.279Z,51.70
2017-10-11T14:38:42.652Z,50.70
2017-10-11T14:41:11.253Z,50.70
2017-10-11T14:43:39.838Z,52.20
2017-10-11T14:46:08.137Z,51.20
2017-10-11T14:48:37.512Z,52.50
2017-10-11T14:51:05.901Z,52.50
2017-10-11T14:53:35.298Z,51.20
2017-10-11T14:56:03.781Z,51.20
2017-10-11T14:58:32.522Z,51.40
2017-10-11T15:01:01.033Z,51.40
2017-10-11T15:03:29.984Z,51.00
2017-10-11T15:05:58.301Z,50.90
2017-10-11T15:08:26.471Z,50.70
2017-10-11T15:10:55.057Z,51.20
2017-10-11T15:13:23.656Z,51.30
2017-10-11T15:15:52.749Z,51.30
2017-10-11T15:18:22.357Z,51.70
2017-10-11T15:20:51.307Z,52.50
2017-10-11T15:23:19.895Z,51.90
2017-10-11T15:25:48.349Z,52.10
2017-10-11T15:28:17.012Z,51.80
2017-10-11T15:30:46.181Z,51.60
2017-10-11T15:33:14.689Z,51.50
2017-10-11T15:35:44.168Z,52.60
2017-10-11T15:38:12.637Z,52.50
2017-10-11T15:40:40.918Z,52.70
2017-10-11T15:43:09.209Z,52.20
2017-10-11T15:45:38.317Z,53.70
2017-10-11T15:48:07.306Z,55.70
2017-10-11T15:50:36.647Z,56.90
2017-10-11T15:53:04.994Z,56.90
2017-10-11T15:55:33.333Z,57.20
2017-10-11T15:58:01.469Z,57.40
2017-10-11T16:00:29.843Z,57.60
2017-10-11T16:02:58.525Z,58.20
2017-10-11T16:05:26.923Z,58.20
2017-10-11T16:07:55.334Z,58.30
2017-10-11T16:10:25.801Z,58.60
2017-10-11T16:12:54.381Z,58.60
2017-10-11T16:15:22.821Z,58.90
2017-10-11T16:17:50.781Z,58.80
2017-10-11T16:20:19.166Z,59.10
2017-10-11T16:22:47.601Z,58.90
2017-10-11T16:25:16.123Z,59.40
2017-10-11T16:27:44.507Z,59.20
2017-10-11T16:30:12.642Z,59.30
2017-10-11T16:32:40.741Z,59.40
2017-10-11T16:35:09.020Z,59.40
2017-10-11T16:37:37.701Z,59.80
2017-10-11T16:40:05.860Z,60.30
2017-10-11T16:42:34.339Z,60.60
2017-10-11T16:45:03.300Z,60.10
2017-10-11T16:47:31.860Z,60.20
2017-10-11T16:50:01.137Z,60.70
2017-10-11T16:52:29.642Z,60.70
2017-10-11T16:54:58.100Z,60.60
2017-10-11T16:57:26.460Z,61.30
2017-10-11T16:59:54.861Z,61.90
2017-10-11T17:02:23.339Z,61.30
2017-10-11T17:04:51.621Z,61.70
2017-10-11T17:07:20.802Z,61.30
2017-10-11T17:09:49.100Z,61.30
2017-10-11T17:12:18.180Z,61.30
2017-10-11T17:14:46.940Z,61.70
2017-10-11T17:17:15.240Z,61.70
2017-10-11T17:19:43.200Z,61.50
2017-10-11T17:22:11.582Z,61.30
2017-10-11T17:24:39.968Z,61.10
2017-10-11T17:27:08.243Z,60.60
2017-10-11T17:29:36.822Z,61.00
2017-10-11T17:32:04.821Z,60.90
2017-10-11T17:34:32.980Z,60.60
2017-10-11T17:37:02.041Z,60.90
2017-10-11T17:39:30.140Z,60.90
2017-10-11T17:41:59.063Z,61.20
2017-10-11T17:44:27.620Z,61.10
2017-10-11T17:46:56.820Z,61.20
2017-10-11T17:49:26.120Z,61.40
2017-10-11T17:51:54.679Z,61.40
2017-10-11T17:54:23.000Z,61.50
2017-10-11T17:56:51.659Z,61.60
2017-10-11T17:59:21.040Z,61.60
2017-10-11T18:01:49.600Z,61.50
2017-10-11T18:04:18.160Z,62.40
2017-10-11T18:06:46.380Z,61.90
2017-10-11T18:09:14.760Z,62.00
2017-10-11T18:11:42.863Z,62.30
2017-10-11T18:14:11.200Z,62.30
2017-10-11T18:16:39.561Z,62.20
2017-10-11T18:19:07.840Z,61.80
2017-10-11T18:21:36.221Z,61.90
2017-10-11T18:24:04.523Z,62.00
2017-10-11T18:26:32.905Z,61.70
2017-10-11T18:29:01.980Z,61.90
2017-10-11T18:31:30.081Z,61.90
2017-10-11T18:33:58.641Z,62.40
2017-10-11T18:36:26.820Z,62.70
2017-10-11T18:38:55.000Z,62.80
2017-10-11T18:41:23.980Z,62.90
2017-10-11T18:43:52.380Z,62.90
2017-10-11T18:46:21.460Z,63.40
2017-10-11T18:48:49.720Z,63.30
2017-10-11T18:51:18.301Z,63.30
2017-10-11T18:53:46.921Z,63.20
2017-10-11T18:56:16.321Z,63.00
2017-10-11T18:58:44.801Z,63.00
2017-10-11T19:01:13.281Z,62.90
2017-10-11T19:03:42.660Z,63.30
2017-10-11T19:06:11.183Z,63.20
2017-10-11T19:08:40.022Z,63.30
2017-10-11T19:11:08.621Z,62.90
2017-10-11T19:13:37.920Z,62.80
2017-10-11T19:16:07.100Z,62.50
2017-10-11T19:18:35.580Z,62.50
2017-10-11T19:21:04.161Z,62.80
2017-10-11T19:23:32.772Z,62.40
2017-10-11T19:26:02.052Z,61.30
2017-10-11T19:28:30.517Z,61.30
2017-10-11T19:30:58.572Z,61.70
2017-10-11T19:33:26.771Z,61.20
2017-10-11T19:35:55.352Z,60.40
2017-10-11T19:38:23.654Z,60.30
2017-10-11T19:40:52.113Z,60.70
2017-10-11T19:43:21.421Z,60.40
2017-10-11T19:45:50.513Z,60.40
2017-10-11T19:48:18.512Z,60.30
2017-10-11T19:50:46.712Z,60.50
2017-10-11T19:53:14.932Z,60.20
2017-10-11T19:55:44.034Z,60.30
2017-10-11T19:58:13.112Z,60.40
2017-10-11T20:00:42.233Z,60.40
2017-10-11T20:03:11.253Z,59.80
2017-10-11T20:05:39.713Z,59.80
2017-10-11T20:08:07.912Z,59.30
2017-10-11T20:10:36.332Z,59.00
2017-10-11T20:13:04.833Z,58.90
2017-10-11T20:15:34.112Z,58.40
2017-10-11T20:18:02.712Z,58.40
2017-10-11T20:20:32.172Z,58.60
2017-10-11T20:23:00.612Z,58.60
2017-10-11T20:25:29.992Z,58.50
2017-10-11T20:27:59.291Z,58.10
2017-10-11T20:30:28.572Z,58.20
2017-10-11T20:32:57.180Z,58.10
2017-10-11T20:35:25.672Z,58.60
2017-10-11T20:37:54.893Z,57.90
2017-10-11T20:40:23.297Z,57.80
2017-10-11T20:42:51.892Z,58.10
2017-10-11T20:45:20.296Z,58.60
2017-10-11T20:47:49.695Z,59.20
2017-10-11T20:50:18.693Z,59.10
2017-10-11T20:52:47.672Z,59.60
2017-10-11T20:55:15.952Z,59.60
2017-10-11T20:57:44.431Z,60.20
2017-10-11T21:00:12.712Z,60.20
2017-10-11T21:02:41.797Z,60.60
2017-10-11T21:05:10.272Z,60.60
2017-10-11T21:07:38.731Z,60.50
2017-10-11T21:10:06.873Z,60.30
2017-10-11T21:12:35.192Z,60.20
2017-10-11T21:15:03.392Z,60.70
2017-10-11T21:17:32.912Z,60.60
2017-10-11T21:20:01.115Z,60.50
2017-10-11T21:22:29.734Z,60.20
2017-10-11T21:24:57.915Z,59.80
2017-10-11T21:27:26.895Z,59.70
2017-10-11T21:29:56.796Z,60.00
2017-10-11T21:32:25.015Z,59.90
2017-10-11T21:34:53.374Z,60.00
2017-10-11T21:37:21.674Z,59.70
2017-10-11T21:39:49.814Z,59.90
2017-10-11T21:42:18.095Z,60.00
2017-10-11T21:44:47.075Z,60.30
2017-10-11T21:47:15.455Z,60.30
2017-10-11T21:49:43.915Z,60.60
2017-10-11T21:52:12.436Z,60.60
2017-10-11T21:54:41.735Z,60.40
2017-10-11T21:57:11.097Z,60.60
2017-10-11T21:59:39.455Z,60.60
2017-10-11T22:02:08.095Z,60.60
2017-10-11T22:04:37.175Z,61.00
2017-10-11T22:07:05.555Z,61.00
2017-10-11T22:09:34.015Z,60.80
2017-10-11T22:12:02.516Z,60.70
2017-10-11T22:14:30.815Z,60.60
2017-10-11T22:16:59.998Z,60.80
2017-10-11T22:19:28.575Z,60.80
2017-10-11T22:21:56.835Z,60.40
2017-10-11T22:24:24.915Z,60.50
2017-10-11T22:26:52.935Z,60.10
2017-10-11T22:29:21.056Z,59.50
2017-10-11T22:31:49.435Z,59.20
2017-10-11T22:34:17.715Z,59.00
2017-10-11T22:36:45.775Z,58.20
2017-10-11T22:39:14.095Z,57.70
2017-10-11T22:41:42.536Z,57.30
2017-10-11T22:44:10.591Z,57.10
2017-10-11T22:46:38.875Z,57.00
2017-10-11T22:49:07.255Z,57.00
2017-10-11T22:51:35.435Z,56.90
2017-10-11T22:54:03.615Z,56.70
2017-10-11T22:56:31.995Z,56.50
2017-10-11T22:59:00.475Z,56.70
2017-10-11T23:01:28.595Z,56.80
2017-10-11T23:03:57.275Z,56.40
2017-10-11T23:06:25.717Z,55.60
2017-10-11T23:08:54.796Z,55.10
2017-10-11T23:11:23.176Z,55.10
2017-10-11T23:13:51.616Z,54.80
2017-10-11T23:16:19.815Z,54.90
2017-10-11T23:18:48.395Z,54.60
2017-10-11T23:21:16.795Z,54.60
2017-10-11T23:23:46.375Z,54.40
2017-10-11T23:26:14.776Z,54.40
2017-10-11T23:28:43.775Z,54.40
2017-10-11T23:31:11.935Z,54.40
2017-10-11T23:33:40.296Z,54.50
2017-10-11T23:36:08.696Z,54.60
2017-10-11T23:38:36.916Z,54.70
2017-10-11T23:41:05.256Z,54.60
2017-10-11T23:43:33.415Z,54.40
2017-10-11T23:46:01.896Z,55.00
2017-10-11T23:48:30.195Z,54.50
2017-10-11T23:50:59.195Z,54.70
2017-10-11T23:53:28.156Z,55.00
2017-10-11T23:55:56.335Z,54.90
2017-10-11T23:58:24.295Z,55.30
